Middleburg Heights, Ohio
Current Conditions -  °F | °C
As of 5:20 PM on Wednesday 22 Oct 2014 (Local Time) from KCLE Reporting Station
Broken Clouds Broken Clouds  
Wind Chill: 50°   Ceiling: 4000
Heat Index: 50°   Visibility: 10mi
Dew Point: 41°   Wind: 9mph
Humidity: 71%   Direction: 10°N
Pressure: 30.27"   Gusts: NA
Location:  41.3776°N, 81.7863°W
Report Text: KCLE 222120Z 01008KT 10SM SCT032 BKN040 10/05 A3027 RMK AO2 T01000050 $
Loading
Personal Weather Stations






























Interactive Weather Map
Tropical Storm Tracking
New forecast layout! Learn more

10-Day Weather Forecast

Advertisements
Track Severe Weather on mobile